Time;durP1;ratioP1;P1;durP2;ratioP2;P2;SDS_P1;SDS_P2;PMS_P1;PMS_P2;Temp;Humidity;BMP_temperature;BMP_pressure;BME280_temperature;BME280_humidity;BME280_pressure;Samples;Min_cycle;Max_cycle;Signal;HPM_P1;HPM_P2
2022/03/03 00:01:42;;;;;;;34.38;21.90;;;;;;;;;;5053341;28;20183;-82
2022/03/03 00:04:08;;;;;;;31.85;22.13;;;;;;;;;;5039012;28;20647;-82
2022/03/03 00:06:36;;;;;;;36.50;23.00;;;;;;;;;;5019207;28;20206;-82
2022/03/03 00:09:02;;;;;;;32.47;21.27;;;;;;;;;;5011864;28;20624;-82
2022/03/03 00:11:30;;;;;;;26.77;19.83;;;;;;;;;;5007220;28;20198;-82
2022/03/03 00:13:56;;;;;;;29.13;20.38;;;;;;;;;;5026569;28;20711;-81
2022/03/03 00:16:22;;;;;;;34.28;20.52;;;;;;;;;;5042630;28;20199;-82
2022/03/03 00:18:48;;;;;;;34.53;21.90;;;;;;;;;;5007765;28;20261;-82
2022/03/03 00:21:14;;;;;;;31.35;20.65;;;;;;;;;;5037401;28;20183;-82
2022/03/03 00:23:40;;;;;;;30.90;22.10;;;;;;;;;;5026494;28;20350;-81
2022/03/03 00:26:06;;;;;;;32.42;20.42;;;;;;;;;;5011566;28;20472;-82
2022/03/03 00:28:32;;;;;;;33.85;20.85;;;;;;;;;;5010762;28;20182;-81
2022/03/03 00:30:58;;;;;;;33.33;20.08;;;;;;;;;;5062394;28;20221;-81
2022/03/03 00:33:24;;;;;;;32.40;22.27;;;;;;;;;;5036167;28;20207;-82
2022/03/03 00:35:50;;;;;;;28.10;20.13;;;;;;;;;;5011907;28;20183;-82
2022/03/03 00:38:16;;;;;;;31.38;21.30;;;;;;;;;;5022484;28;20197;-82
2022/03/03 00:40:42;;;;;;;29.05;21.85;;;;;;;;;;5035779;28;20397;-82
2022/03/03 00:43:08;;;;;;;24.75;19.40;;;;;;;;;;5059939;28;20658;-82
2022/03/03 00:45:35;;;;;;;30.52;20.98;;;;;;;;;;5033939;28;20557;-82
2022/03/03 00:48:02;;;;;;;36.08;23.80;;;;;;;;;;5044664;28;20183;-82
2022/03/03 00:50:28;;;;;;;31.85;21.65;;;;;;;;;;5015437;28;20190;-82
2022/03/03 00:52:54;;;;;;;29.38;19.77;;;;;;;;;;5047258;28;20187;-82
2022/03/03 00:55:20;;;;;;;28.70;20.57;;;;;;;;;;5015460;28;20217;-81
2022/03/03 00:57:46;;;;;;;29.92;21.00;;;;;;;;;;5010010;28;20418;-82
2022/03/03 01:00:12;;;;;;;33.35;22.17;;;;;;;;;;5009736;28;20727;-82
2022/03/03 01:02:38;;;;;;;31.20;20.40;;;;;;;;;;5038520;28;20205;-82
2022/03/03 01:05:05;;;;;;;30.33;20.50;;;;;;;;;;5040195;28;20189;-82
2022/03/03 01:07:32;;;;;;;29.92;20.52;;;;;;;;;;5025724;28;20175;-82
2022/03/03 01:09:58;;;;;;;31.27;21.02;;;;;;;;;;5016864;28;20255;-82
2022/03/03 01:12:24;;;;;;;32.55;21.23;;;;;;;;;;5043930;28;20274;-82
2022/03/03 01:14:50;;;;;;;32.42;21.92;;;;;;;;;;5042579;28;20197;-82
2022/03/03 01:17:16;;;;;;;30.05;20.60;;;;;;;;;;5024287;28;20550;-82
2022/03/03 01:19:42;;;;;;;31.67;20.65;;;;;;;;;;5029483;28;20206;-82
2022/03/03 01:22:08;;;;;;;30.77;22.10;;;;;;;;;;5042940;28;20624;-82
2022/03/03 01:24:35;;;;;;;28.88;20.50;;;;;;;;;;5006682;28;20167;-81
2022/03/03 01:27:01;;;;;;;30.17;20.98;;;;;;;;;;5046735;28;20258;-82
2022/03/03 01:29:27;;;;;;;31.45;22.52;;;;;;;;;;5046279;28;20210;-81
2022/03/03 01:31:53;;;;;;;30.90;21.27;;;;;;;;;;5046115;28;20262;-82
2022/03/03 01:34:19;;;;;;;28.02;20.27;;;;;;;;;;5044449;28;20266;-82
2022/03/03 01:36:45;;;;;;;28.73;19.98;;;;;;;;;;5009764;28;20234;-82
2022/03/03 01:39:11;;;;;;;30.75;21.20;;;;;;;;;;5043058;28;20237;-82
2022/03/03 01:41:40;;;;;;;30.95;20.90;;;;;;;;;;5041715;28;20179;-81
2022/03/03 01:44:07;;;;;;;34.00;21.13;;;;;;;;;;5037839;28;20185;-82
2022/03/03 01:46:32;;;;;;;30.80;19.33;;;;;;;;;;5040257;28;20178;-82
2022/03/03 01:48:58;;;;;;;25.63;19.60;;;;;;;;;;5041378;28;20727;-82
2022/03/03 01:51:24;;;;;;;29.77;19.77;;;;;;;;;;5039352;28;20187;-82
2022/03/03 01:53:50;;;;;;;35.33;22.27;;;;;;;;;;5024088;28;20199;-82
2022/03/03 01:56:17;;;;;;;27.23;20.90;;;;;;;;;;5010542;28;20645;-82
2022/03/03 01:58:43;;;;;;;32.00;20.85;;;;;;;;;;5029040;28;20182;-82
2022/03/03 02:01:09;;;;;;;27.70;19.95;;;;;;;;;;5010363;28;20189;-82
2022/03/03 02:03:35;;;;;;;30.33;20.35;;;;;;;;;;5041672;28;20251;-82
2022/03/03 02:06:01;;;;;;;31.40;21.27;;;;;;;;;;5014498;28;20175;-82
2022/03/03 02:08:28;;;;;;;27.10;20.45;;;;;;;;;;5042044;28;20187;-82
2022/03/03 02:10:54;;;;;;;29.27;21.08;;;;;;;;;;5013717;28;20201;-82
2022/03/03 02:13:20;;;;;;;27.90;20.33;;;;;;;;;;5043424;28;20273;-82
2022/03/03 02:15:47;;;;;;;28.15;20.60;;;;;;;;;;5023229;28;20591;-81
2022/03/03 02:18:13;;;;;;;29.77;21.52;;;;;;;;;;5044611;28;20587;-81
2022/03/03 02:20:39;;;;;;;32.38;19.20;;;;;;;;;;5044923;28;20215;-82
2022/03/03 02:23:05;;;;;;;30.02;21.35;;;;;;;;;;5019324;28;20187;-82
2022/03/03 02:25:31;;;;;;;32.38;20.48;;;;;;;;;;5044806;28;20178;-82
2022/03/03 02:27:58;;;;;;;34.05;21.80;;;;;;;;;;5008964;28;20586;-82
2022/03/03 02:30:24;;;;;;;27.15;20.48;;;;;;;;;;5010915;28;20659;-82
2022/03/03 02:32:49;;;;;;;28.02;20.08;;;;;;;;;;5056915;28;20194;-82
2022/03/03 02:35:16;;;;;;;32.45;22.10;;;;;;;;;;5045827;28;20195;-82
2022/03/03 02:37:43;;;;;;;27.10;20.33;;;;;;;;;;5027958;28;20301;-82
2022/03/03 02:40:14;;;;;;;29.40;20.13;;;;;;;;;;5041265;28;20233;-82
2022/03/03 02:42:40;;;;;;;26.77;19.67;;;;;;;;;;5040792;28;20172;-82
2022/03/03 02:45:06;;;;;;;30.33;19.05;;;;;;;;;;5049776;28;20175;-82
2022/03/03 02:47:32;;;;;;;36.03;20.55;;;;;;;;;;5046846;28;20187;-82
2022/03/03 02:49:58;;;;;;;26.58;18.55;;;;;;;;;;5044195;28;20195;-82
2022/03/03 02:52:24;;;;;;;31.05;21.50;;;;;;;;;;5042990;28;20229;-82
2022/03/03 02:54:50;;;;;;;28.17;19.85;;;;;;;;;;5036608;28;20184;-82
2022/03/03 03:00:01;;;;;;;30.90;19.48;;;;;;;;;;5008775;28;20210;-81
2022/03/03 03:02:27;;;;;;;28.67;20.63;;;;;;;;;;5012502;28;20215;-82
2022/03/03 03:04:53;;;;;;;28.30;21.30;;;;;;;;;;5012768;28;20174;-82
2022/03/03 03:07:19;;;;;;;29.27;19.92;;;;;;;;;;5042071;28;20182;-82
2022/03/03 03:09:46;;;;;;;33.58;18.88;;;;;;;;;;5054307;28;20266;-81
2022/03/03 03:12:12;;;;;;;24.80;19.38;;;;;;;;;;5054537;28;20167;-82
2022/03/03 03:14:38;;;;;;;29.30;21.10;;;;;;;;;;5011347;28;20198;-82
2022/03/03 03:17:04;;;;;;;27.00;19.50;;;;;;;;;;5031957;28;20194;-82
2022/03/03 03:19:30;;;;;;;27.55;19.45;;;;;;;;;;5019255;28;20218;-82
2022/03/03 03:21:56;;;;;;;25.73;19.23;;;;;;;;;;5007062;28;20182;-82
2022/03/03 03:24:22;;;;;;;26.33;19.17;;;;;;;;;;5037324;28;20501;-82
2022/03/03 03:26:48;;;;;;;29.92;18.98;;;;;;;;;;5027094;28;20201;-82
2022/03/03 03:29:14;;;;;;;23.07;18.83;;;;;;;;;;5043759;28;20202;-82
2022/03/03 03:31:40;;;;;;;29.02;19.77;;;;;;;;;;5011780;28;20503;-82
2022/03/03 03:34:06;;;;;;;29.05;19.73;;;;;;;;;;5040739;28;20213;-82
2022/03/03 03:36:32;;;;;;;32.60;20.35;;;;;;;;;;5056767;28;20552;-82
2022/03/03 03:38:58;;;;;;;26.98;20.23;;;;;;;;;;5043552;28;20197;-82
2022/03/03 03:41:24;;;;;;;27.92;20.58;;;;;;;;;;5051521;28;20243;-82
2022/03/03 03:43:50;;;;;;;27.08;18.75;;;;;;;;;;5049178;28;20205;-82
2022/03/03 03:46:16;;;;;;;26.98;19.15;;;;;;;;;;5007533;28;20187;-82
2022/03/03 03:48:42;;;;;;;23.85;18.30;;;;;;;;;;5019745;28;20198;-82
2022/03/03 03:51:08;;;;;;;29.15;20.35;;;;;;;;;;5010920;28;20179;-82
2022/03/03 03:53:34;;;;;;;28.88;19.00;;;;;;;;;;5020309;28;20200;-82
2022/03/03 03:56:00;;;;;;;28.50;18.23;;;;;;;;;;5050987;28;20182;-82
2022/03/03 03:58:26;;;;;;;28.60;19.90;;;;;;;;;;5039571;28;20512;-82
2022/03/03 04:00:52;;;;;;;26.65;18.23;;;;;;;;;;5029412;28;20717;-82
2022/03/03 04:03:18;;;;;;;25.70;18.25;;;;;;;;;;5054759;28;20230;-81
2022/03/03 04:05:44;;;;;;;26.98;17.30;;;;;;;;;;5024025;28;20548;-82
2022/03/03 04:08:10;;;;;;;26.08;17.30;;;;;;;;;;5026386;28;20183;-82
2022/03/03 04:10:36;;;;;;;27.33;18.10;;;;;;;;;;5040050;28;20195;-82
2022/03/03 04:13:02;;;;;;;29.05;19.17;;;;;;;;;;5054529;28;20262;-82
2022/03/03 04:15:28;;;;;;;25.08;18.80;;;;;;;;;;5019041;28;20179;-82
2022/03/03 04:17:54;;;;;;;24.48;17.60;;;;;;;;;;5010989;28;20199;-82
2022/03/03 04:20:22;;;;;;;25.57;18.40;;;;;;;;;;5038397;28;20217;-82
2022/03/03 04:22:48;;;;;;;25.10;17.45;;;;;;;;;;5021623;28;20442;-82
2022/03/03 04:25:14;;;;;;;26.92;16.88;;;;;;;;;;5027148;28;20184;-82
2022/03/03 04:27:40;;;;;;;25.23;18.05;;;;;;;;;;5038400;28;20684;-82
2022/03/03 04:30:09;;;;;;;23.88;17.50;;;;;;;;;;5042251;28;20174;-82
2022/03/03 04:32:35;;;;;;;29.48;18.80;;;;;;;;;;5042919;28;20193;-82
2022/03/03 04:35:01;;;;;;;25.13;18.08;;;;;;;;;;5041969;28;20190;-82
2022/03/03 04:37:27;;;;;;;24.02;17.50;;;;;;;;;;5011250;28;20201;-82
2022/03/03 04:39:53;;;;;;;25.35;18.20;;;;;;;;;;5038317;28;20233;-82
2022/03/03 04:42:19;;;;;;;27.65;18.25;;;;;;;;;;5009460;28;20167;-82
2022/03/03 04:44:45;;;;;;;28.40;19.03;;;;;;;;;;5011545;28;20187;-82
2022/03/03 04:47:11;;;;;;;22.17;16.43;;;;;;;;;;5041683;28;21090;-82
2022/03/03 04:49:37;;;;;;;22.70;17.23;;;;;;;;;;5042338;28;20441;-82
2022/03/03 04:52:03;;;;;;;23.80;18.95;;;;;;;;;;5038686;28;20194;-82
2022/03/03 04:54:29;;;;;;;24.45;17.83;;;;;;;;;;5056135;28;20178;-82
2022/03/03 04:56:55;;;;;;;26.43;19.40;;;;;;;;;;5011557;28;20253;-82
2022/03/03 04:59:23;;;;;;;22.40;17.45;;;;;;;;;;5037786;28;20466;-82
2022/03/03 05:01:49;;;;;;;27.13;17.05;;;;;;;;;;5025622;28;20190;-82
2022/03/03 05:04:15;;;;;;;22.50;17.08;;;;;;;;;;5040364;28;20175;-83
2022/03/03 05:06:41;;;;;;;26.13;17.60;;;;;;;;;;5038214;28;20186;-82
2022/03/03 05:09:07;;;;;;;28.55;16.85;;;;;;;;;;5039296;28;20406;-82
2022/03/03 05:11:33;;;;;;;25.35;16.65;;;;;;;;;;5016753;28;20453;-82
2022/03/03 05:13:59;;;;;;;24.70;18.50;;;;;;;;;;5006951;28;20183;-82
2022/03/03 05:16:25;;;;;;;31.27;18.27;;;;;;;;;;5009635;28;20213;-82
2022/03/03 05:18:51;;;;;;;24.92;17.02;;;;;;;;;;5044452;28;21108;-82
2022/03/03 05:21:17;;;;;;;21.75;17.52;;;;;;;;;;5047696;28;20188;-82
2022/03/03 05:23:43;;;;;;;25.73;16.08;;;;;;;;;;5044428;28;20203;-82
2022/03/03 05:26:09;;;;;;;24.55;18.88;;;;;;;;;;5007239;28;20207;-82
2022/03/03 05:28:35;;;;;;;23.63;16.38;;;;;;;;;;5037756;28;20190;-82
2022/03/03 05:31:01;;;;;;;26.75;17.02;;;;;;;;;;5049627;28;20191;-82
2022/03/03 05:33:27;;;;;;;29.40;17.35;;;;;;;;;;5030051;28;20707;-83
2022/03/03 05:35:58;;;;;;;16.92;14.50;;;;;;;;;;5010776;28;20532;-82
2022/03/03 05:38:26;;;;;;;22.40;16.75;;;;;;;;;;5021620;28;20732;-82
2022/03/03 05:40:53;;;;;;;25.63;16.50;;;;;;;;;;5029253;28;20225;-82
2022/03/03 05:43:19;;;;;;;22.95;16.40;;;;;;;;;;5041084;28;20181;-82
2022/03/03 05:45:46;;;;;;;26.17;16.90;;;;;;;;;;5057714;28;20178;-82
2022/03/03 05:48:13;;;;;;;27.65;17.25;;;;;;;;;;5042836;28;20433;-82
2022/03/03 05:50:39;;;;;;;22.00;17.35;;;;;;;;;;5046658;28;20218;-82
2022/03/03 05:53:05;;;;;;;24.85;17.08;;;;;;;;;;5017140;28;20183;-81
2022/03/03 05:55:31;;;;;;;23.35;16.35;;;;;;;;;;5024841;28;20183;-81
2022/03/03 05:57:57;;;;;;;28.83;17.55;;;;;;;;;;5040371;28;20194;-81
2022/03/03 06:00:26;;;;;;;24.73;17.90;;;;;;;;;;5039046;28;20201;-82
2022/03/03 06:02:55;;;;;;;24.38;18.15;;;;;;;;;;5044672;28;20252;-82
2022/03/03 06:05:23;;;;;;;25.17;18.65;;;;;;;;;;5029797;28;20186;-82
2022/03/03 06:08:04;;;;;;;29.40;16.92;;;;;;;;;;5057173;28;20183;-82
2022/03/03 06:10:32;;;;;;;25.48;19.15;;;;;;;;;;5049941;28;20273;-83
2022/03/03 06:13:06;;;;;;;22.55;17.33;;;;;;;;;;5011993;28;20186;-82
2022/03/03 06:15:33;;;;;;;25.42;19.73;;;;;;;;;;5060687;28;20187;-82
2022/03/03 06:18:00;;;;;;;30.00;19.30;;;;;;;;;;5056304;28;20189;-82
2022/03/03 06:20:27;;;;;;;21.40;17.13;;;;;;;;;;5043404;28;20694;-82
2022/03/03 06:22:53;;;;;;;26.42;17.95;;;;;;;;;;5055530;28;22484;-83
2022/03/03 06:25:19;;;;;;;26.25;17.92;;;;;;;;;;5043808;28;20217;-82
2022/03/03 06:27:45;;;;;;;26.05;18.50;;;;;;;;;;5039443;28;20170;-82
2022/03/03 06:30:12;;;;;;;31.88;18.88;;;;;;;;;;5028794;28;20234;-82
2022/03/03 06:32:38;;;;;;;29.85;20.05;;;;;;;;;;5033293;28;20199;-82
2022/03/03 06:35:04;;;;;;;29.08;19.45;;;;;;;;;;5049666;28;20178;-82
2022/03/03 06:37:30;;;;;;;27.52;18.70;;;;;;;;;;5024711;28;20183;-82
2022/03/03 06:39:56;;;;;;;28.70;18.65;;;;;;;;;;5059413;28;20244;-82
2022/03/03 06:42:22;;;;;;;29.23;19.40;;;;;;;;;;5011013;28;20183;-82
2022/03/03 06:44:48;;;;;;;26.73;18.05;;;;;;;;;;5045582;28;20520;-82
2022/03/03 06:47:16;;;;;;;22.20;16.77;;;;;;;;;;5045310;28;20190;-82
2022/03/03 06:49:42;;;;;;;22.80;17.17;;;;;;;;;;5019163;28;20182;-82
2022/03/03 06:52:08;;;;;;;23.27;18.35;;;;;;;;;;5023383;28;20767;-82
2022/03/03 06:54:34;;;;;;;25.20;17.98;;;;;;;;;;5036473;28;20225;-82
2022/03/03 06:57:01;;;;;;;23.63;17.30;;;;;;;;;;5020311;28;20210;-82
2022/03/03 06:59:28;;;;;;;21.52;17.13;;;;;;;;;;5037720;28;20209;-82
2022/03/03 07:01:55;;;;;;;27.83;17.80;;;;;;;;;;5051407;28;20225;-82
2022/03/03 07:04:22;;;;;;;24.58;16.63;;;;;;;;;;5016565;28;20183;-83
2022/03/03 07:06:49;;;;;;;21.42;18.20;;;;;;;;;;5052973;28;20174;-84
2022/03/03 07:09:15;;;;;;;23.92;16.38;;;;;;;;;;5023965;28;20224;-84
2022/03/03 07:11:42;;;;;;;24.77;16.83;;;;;;;;;;5048911;28;20289;-85
2022/03/03 07:14:08;;;;;;;25.90;17.40;;;;;;;;;;5051184;28;20182;-84
2022/03/03 07:16:37;;;;;;;28.70;17.40;;;;;;;;;;5051089;28;20186;-84
2022/03/03 07:19:05;;;;;;;24.58;16.58;;;;;;;;;;5054724;28;20183;-84
2022/03/03 07:21:43;;;;;;;21.33;15.68;;;;;;;;;;5056618;28;20639;-86
2022/03/03 07:24:25;;;;;;;27.33;16.17;;;;;;;;;;5051623;28;20266;-84
2022/03/03 07:26:51;;;;;;;20.13;15.98;;;;;;;;;;5047635;28;20285;-85
2022/03/03 07:29:19;;;;;;;27.83;17.30;;;;;;;;;;5048969;28;20193;-85
2022/03/03 07:31:51;;;;;;;23.15;16.75;;;;;;;;;;5019292;28;20254;-85
2022/03/03 07:34:22;;;;;;;24.85;17.35;;;;;;;;;;5024487;28;20197;-85
2022/03/03 07:36:48;;;;;;;22.77;16.73;;;;;;;;;;5016334;28;20193;-85
2022/03/03 07:39:16;;;;;;;23.33;16.10;;;;;;;;;;5053942;28;20565;-85
2022/03/03 07:41:43;;;;;;;23.23;14.88;;;;;;;;;;5050643;28;20193;-85
2022/03/03 07:44:09;;;;;;;24.77;16.52;;;;;;;;;;5021305;28;20185;-85
2022/03/03 07:46:35;;;;;;;24.43;15.70;;;;;;;;;;5047781;28;20248;-85
2022/03/03 07:49:02;;;;;;;29.73;17.52;;;;;;;;;;5024671;28;20457;-84
2022/03/03 07:51:28;;;;;;;26.23;16.67;;;;;;;;;;5044547;28;20664;-84
2022/03/03 07:53:54;;;;;;;23.17;16.58;;;;;;;;;;5015070;28;20186;-84
2022/03/03 07:56:28;;;;;;;22.38;17.90;;;;;;;;;;5024502;28;20756;-83
2022/03/03 07:59:12;;;;;;;21.92;15.68;;;;;;;;;;5044606;28;20194;-85
2022/03/03 08:01:38;;;;;;;25.13;16.10;;;;;;;;;;5017020;28;20577;-84
2022/03/03 08:04:05;;;;;;;25.52;18.25;;;;;;;;;;5031017;28;20282;-85
2022/03/03 08:06:32;;;;;;;24.73;17.38;;;;;;;;;;5039373;28;20256;-84
2022/03/03 08:09:01;;;;;;;30.45;18.10;;;;;;;;;;5035991;28;20178;-84
2022/03/03 08:11:27;;;;;;;24.38;17.13;;;;;;;;;;5056083;28;20191;-84
2022/03/03 08:13:54;;;;;;;25.88;17.52;;;;;;;;;;5051716;28;20189;-84
2022/03/03 08:16:20;;;;;;;25.27;17.08;;;;;;;;;;5017493;28;20194;-85
2022/03/03 08:18:47;;;;;;;31.70;18.85;;;;;;;;;;5020787;28;20186;-84
2022/03/03 08:21:14;;;;;;;26.23;17.30;;;;;;;;;;5060474;28;20198;-83
2022/03/03 08:23:40;;;;;;;24.83;16.42;;;;;;;;;;5018259;28;20178;-84
2022/03/03 08:26:06;;;;;;;28.38;18.67;;;;;;;;;;5049011;28;20250;-83
2022/03/03 08:28:32;;;;;;;27.85;17.13;;;;;;;;;;5050669;28;20206;-84
2022/03/03 08:31:00;;;;;;;20.85;16.90;;;;;;;;;;5020574;28;20202;-84
2022/03/03 08:33:42;;;;;;;23.02;18.50;;;;;;;;;;5035716;28;20183;-84
2022/03/03 08:36:21;;;;;;;28.85;19.77;;;;;;;;;;5054391;28;20170;-84
2022/03/03 08:38:51;;;;;;;22.35;18.67;;;;;;;;;;5015570;28;20243;-84
2022/03/03 08:41:20;;;;;;;28.52;17.73;;;;;;;;;;5015636;28;20222;-84
2022/03/03 08:43:48;;;;;;;27.65;19.13;;;;;;;;;;5052125;28;20535;-85
2022/03/03 08:46:17;;;;;;;29.65;20.13;;;;;;;;;;5050600;28;20191;-84
2022/03/03 08:48:44;;;;;;;31.00;19.42;;;;;;;;;;5043138;28;20204;-85
2022/03/03 08:51:11;;;;;;;28.50;18.45;;;;;;;;;;5038932;28;20178;-83
2022/03/03 08:53:37;;;;;;;28.15;18.75;;;;;;;;;;5016773;28;20765;-84
2022/03/03 08:56:03;;;;;;;25.33;18.00;;;;;;;;;;5010341;28;20238;-85
2022/03/03 08:58:29;;;;;;;28.00;19.35;;;;;;;;;;5011535;28;20441;-84
2022/03/03 09:00:55;;;;;;;29.75;19.88;;;;;;;;;;5038050;28;20225;-85
2022/03/03 09:03:22;;;;;;;26.77;19.02;;;;;;;;;;5044204;28;20210;-85
2022/03/03 09:05:49;;;;;;;27.52;19.10;;;;;;;;;;5016447;28;20197;-84
2022/03/03 09:08:15;;;;;;;27.55;19.90;;;;;;;;;;5031546;28;20186;-82
2022/03/03 09:10:41;;;;;;;25.63;18.50;;;;;;;;;;5057319;28;20193;-83
2022/03/03 09:13:07;;;;;;;23.75;18.60;;;;;;;;;;5046071;28;20187;-82
2022/03/03 09:15:33;;;;;;;28.42;18.10;;;;;;;;;;5011750;28;20179;-83
2022/03/03 09:18:00;;;;;;;26.35;17.98;;;;;;;;;;5045880;28;20273;-82
2022/03/03 09:20:26;;;;;;;25.80;18.23;;;;;;;;;;5045652;28;20214;-82
2022/03/03 09:22:53;;;;;;;24.40;18.40;;;;;;;;;;5014354;28;20205;-82
2022/03/03 09:25:20;;;;;;;27.45;18.48;;;;;;;;;;5013334;28;20647;-82
2022/03/03 09:27:46;;;;;;;25.33;19.42;;;;;;;;;;5057279;28;20186;-82
2022/03/03 09:30:13;;;;;;;25.33;21.02;;;;;;;;;;5044968;28;20175;-82
2022/03/03 09:32:39;;;;;;;27.20;20.27;;;;;;;;;;5013467;28;20191;-82
2022/03/03 09:35:06;;;;;;;35.63;20.25;;;;;;;;;;5045792;28;20278;-82
2022/03/03 09:37:32;;;;;;;30.13;20.88;;;;;;;;;;5045023;28;20205;-83
2022/03/03 09:39:58;;;;;;;26.95;18.63;;;;;;;;;;5040857;28;20279;-83
2022/03/03 09:42:26;;;;;;;28.42;19.60;;;;;;;;;;5023745;28;20217;-82
2022/03/03 09:44:53;;;;;;;24.23;18.65;;;;;;;;;;5025742;28;20180;-82
2022/03/03 09:47:19;;;;;;;23.52;18.65;;;;;;;;;;5050812;28;20214;-82
2022/03/03 09:49:45;;;;;;;27.85;20.02;;;;;;;;;;5014583;28;20190;-83
2022/03/03 09:52:15;;;;;;;24.65;18.38;;;;;;;;;;5041741;28;20186;-83
2022/03/03 09:54:42;;;;;;;30.80;19.80;;;;;;;;;;5040882;28;20202;-82
2022/03/03 09:57:08;;;;;;;25.45;19.38;;;;;;;;;;5028764;28;20563;-83
2022/03/03 09:59:34;;;;;;;25.77;17.67;;;;;;;;;;5045563;28;20196;-82
2022/03/03 10:02:05;;;;;;;21.65;17.35;;;;;;;;;;5044879;28;20555;-82
2022/03/03 10:04:31;;;;;;;23.35;17.95;;;;;;;;;;5044917;28;20564;-83
2022/03/03 10:07:02;;;;;;;29.60;18.88;;;;;;;;;;5040131;28;20179;-83
2022/03/03 10:09:28;;;;;;;21.80;17.55;;;;;;;;;;5053753;28;20202;-82
2022/03/03 10:12:04;;;;;;;26.70;18.13;;;;;;;;;;5013763;28;20191;-82
2022/03/03 10:14:30;;;;;;;26.88;19.95;;;;;;;;;;5013831;28;20438;-82
2022/03/03 10:16:56;;;;;;;27.13;20.13;;;;;;;;;;5047812;28;20186;-82
2022/03/03 10:19:22;;;;;;;26.05;20.20;;;;;;;;;;5023747;28;20462;-83
2022/03/03 10:21:49;;;;;;;25.70;18.15;;;;;;;;;;5007417;28;20313;-83
2022/03/03 10:24:21;;;;;;;26.50;20.42;;;;;;;;;;5044117;28;20361;-82
2022/03/03 10:26:55;;;;;;;27.20;19.02;;;;;;;;;;5013502;28;20176;-83
2022/03/03 10:29:22;;;;;;;33.03;21.13;;;;;;;;;;5012855;28;20233;-83
2022/03/03 10:31:49;;;;;;;27.90;20.30;;;;;;;;;;5044414;28;20182;-82
2022/03/03 10:34:17;;;;;;;34.00;20.60;;;;;;;;;;5041959;28;20210;-82
2022/03/03 10:36:43;;;;;;;25.90;19.52;;;;;;;;;;5039600;28;20198;-83
2022/03/03 10:39:09;;;;;;;28.38;20.70;;;;;;;;;;5025281;28;20689;-84
2022/03/03 10:41:35;;;;;;;29.10;20.00;;;;;;;;;;5055651;28;20217;-83
2022/03/03 10:44:03;;;;;;;31.70;20.42;;;;;;;;;;5020437;28;20450;-84
2022/03/03 10:46:30;;;;;;;29.65;19.50;;;;;;;;;;5011416;28;20257;-83
2022/03/03 10:48:56;;;;;;;29.17;20.77;;;;;;;;;;5008488;28;20189;-84
2022/03/03 10:51:24;;;;;;;26.90;18.88;;;;;;;;;;5009680;28;20179;-82
2022/03/03 10:53:51;;;;;;;26.52;17.88;;;;;;;;;;5054740;28;20197;-83
2022/03/03 10:56:19;;;;;;;26.80;18.05;;;;;;;;;;5055790;28;20194;-82
2022/03/03 10:58:45;;;;;;;28.45;18.10;;;;;;;;;;5053861;28;20178;-83
2022/03/03 11:01:11;;;;;;;28.90;18.65;;;;;;;;;;5008829;28;20230;-82
2022/03/03 11:03:39;;;;;;;30.40;16.58;;;;;;;;;;5055733;28;20182;-85
2022/03/03 11:06:05;;;;;;;21.92;17.38;;;;;;;;;;5042730;28;20168;-82
2022/03/03 11:08:31;;;;;;;24.50;16.52;;;;;;;;;;5052215;28;20273;-83
2022/03/03 11:10:57;;;;;;;24.42;16.48;;;;;;;;;;5019895;28;20198;-83
2022/03/03 11:13:24;;;;;;;24.88;16.73;;;;;;;;;;5042900;28;20278;-83
2022/03/03 11:15:52;;;;;;;25.55;15.80;;;;;;;;;;5038392;28;20428;-82
2022/03/03 11:18:19;;;;;;;22.83;16.90;;;;;;;;;;5042278;28;20186;-83
2022/03/03 11:20:51;;;;;;;24.67;16.67;;;;;;;;;;5011980;28;20287;-84
2022/03/03 11:23:17;;;;;;;23.05;16.35;;;;;;;;;;5043568;28;20278;-82
2022/03/03 11:25:47;;;;;;;22.90;16.50;;;;;;;;;;5054031;28;20189;-82
2022/03/03 11:28:14;;;;;;;24.23;17.33;;;;;;;;;;5009189;28;20515;-82
2022/03/03 11:30:41;;;;;;;23.70;16.80;;;;;;;;;;5038922;28;20181;-82
2022/03/03 11:33:26;;;;;;;22.63;16.05;;;;;;;;;;5010905;28;20201;-82
2022/03/03 11:36:03;;;;;;;25.20;15.15;;;;;;;;;;5043228;28;20206;-83
2022/03/03 11:38:47;;;;;;;19.90;15.80;;;;;;;;;;5043276;28;20190;-82
2022/03/03 11:41:13;;;;;;;24.77;16.70;;;;;;;;;;5043100;28;20230;-85
2022/03/03 11:44:09;;;;;;;21.92;16.48;;;;;;;;;;5043375;28;20186;-83
2022/03/03 11:46:45;;;;;;;24.67;15.88;;;;;;;;;;5014871;28;20233;-82
2022/03/03 11:49:12;;;;;;;23.20;15.00;;;;;;;;;;5039457;28;20170;-83
2022/03/03 11:51:38;;;;;;;22.60;16.42;;;;;;;;;;5006787;28;20214;-84
2022/03/03 11:54:08;;;;;;;25.50;16.10;;;;;;;;;;5010811;28;20223;-83
2022/03/03 11:56:36;;;;;;;21.83;15.43;;;;;;;;;;5011644;28;20477;-83
2022/03/03 11:59:13;;;;;;;20.95;15.20;;;;;;;;;;5042941;28;20183;-84
2022/03/03 12:01:59;;;;;;;18.60;14.73;;;;;;;;;;5042748;28;20228;-84
2022/03/03 12:04:26;;;;;;;20.30;15.30;;;;;;;;;;5009953;28;20187;-83
2022/03/03 12:06:54;;;;;;;25.85;15.90;;;;;;;;;;5054255;28;20246;-82
2022/03/03 12:09:30;;;;;;;20.67;14.25;;;;;;;;;;5041258;28;20204;-82
2022/03/03 12:12:11;;;;;;;21.17;14.00;;;;;;;;;;5022006;28;20717;-82
2022/03/03 12:14:51;;;;;;;19.35;14.10;;;;;;;;;;5054262;28;20341;-83
2022/03/03 12:17:38;;;;;;;17.85;13.98;;;;;;;;;;5047182;28;20286;-83
2022/03/03 12:20:23;;;;;;;20.30;14.88;;;;;;;;;;5042750;28;20233;-85
2022/03/03 12:23:10;;;;;;;18.92;14.00;;;;;;;;;;5012897;28;20702;-82
2022/03/03 12:25:54;;;;;;;19.65;13.70;;;;;;;;;;5053968;28;20249;-83
2022/03/03 12:28:20;;;;;;;17.35;13.95;;;;;;;;;;5054517;28;20187;-85
2022/03/03 12:30:47;;;;;;;21.33;14.20;;;;;;;;;;5038362;28;20176;-83
2022/03/03 12:33:24;;;;;;;20.30;15.50;;;;;;;;;;5052833;28;20432;-83
2022/03/03 12:35:50;;;;;;;22.05;14.85;;;;;;;;;;5022099;28;20195;-82
2022/03/03 12:38:16;;;;;;;19.65;13.80;;;;;;;;;;5048350;28;20192;-84
2022/03/03 12:40:43;;;;;;;18.80;13.40;;;;;;;;;;5010907;28;20217;-83
2022/03/03 12:43:13;;;;;;;16.73;12.75;;;;;;;;;;5039677;28;20245;-84
2022/03/03 12:45:40;;;;;;;16.30;12.70;;;;;;;;;;5057828;28;20176;-82
2022/03/03 12:48:06;;;;;;;16.45;13.05;;;;;;;;;;5045421;28;20179;-83
2022/03/03 12:50:33;;;;;;;16.33;13.40;;;;;;;;;;5046668;28;20285;-83
2022/03/03 12:53:01;;;;;;;17.95;11.93;;;;;;;;;;5017802;28;20186;-83
2022/03/03 12:55:34;;;;;;;22.15;14.43;;;;;;;;;;5025961;28;20193;-84
2022/03/03 12:58:01;;;;;;;18.52;13.18;;;;;;;;;;5041900;28;20268;-84
2022/03/03 13:00:27;;;;;;;17.73;13.05;;;;;;;;;;5043451;28;20224;-84
2022/03/03 13:02:58;;;;;;;16.77;13.43;;;;;;;;;;5045654;28;20189;-85
2022/03/03 13:05:46;;;;;;;19.40;13.15;;;;;;;;;;5046572;28;20181;-83
2022/03/03 13:08:22;;;;;;;16.35;13.95;;;;;;;;;;5029571;28;20539;-84
2022/03/03 13:10:48;;;;;;;17.05;13.25;;;;;;;;;;5046606;28;20188;-85
2022/03/03 13:13:14;;;;;;;17.08;13.98;;;;;;;;;;5043289;28;20199;-84
2022/03/03 13:15:43;;;;;;;19.88;14.40;;;;;;;;;;5040533;28;20177;-83
2022/03/03 13:18:11;;;;;;;23.05;15.25;;;;;;;;;;5028647;28;20185;-85
2022/03/03 13:20:38;;;;;;;17.45;14.00;;;;;;;;;;5046333;28;20206;-84
2022/03/03 13:23:05;;;;;;;23.90;15.90;;;;;;;;;;5013851;28;20240;-85
2022/03/03 13:25:31;;;;;;;22.55;15.50;;;;;;;;;;5013766;28;20226;-84
2022/03/03 13:27:57;;;;;;;19.98;14.15;;;;;;;;;;5040174;28;20705;-84
2022/03/03 13:30:23;;;;;;;19.75;14.52;;;;;;;;;;5011939;28;20183;-84
2022/03/03 13:32:50;;;;;;;20.63;13.93;;;;;;;;;;5045891;28;20195;-85
2022/03/03 13:35:17;;;;;;;22.38;15.25;;;;;;;;;;5045847;28;20211;-84
2022/03/03 13:37:43;;;;;;;20.30;15.82;;;;;;;;;;5015271;28;20222;-83
2022/03/03 13:40:18;;;;;;;25.30;16.08;;;;;;;;;;5055989;28;20214;-83
2022/03/03 13:42:45;;;;;;;28.30;16.38;;;;;;;;;;5038315;28;20189;-83
2022/03/03 13:45:11;;;;;;;25.55;15.95;;;;;;;;;;5012499;28;20182;-82
2022/03/03 13:47:42;;;;;;;20.50;15.38;;;;;;;;;;5045516;28;20220;-84
2022/03/03 13:50:09;;;;;;;21.67;15.95;;;;;;;;;;5049731;28;20243;-85
2022/03/03 13:52:39;;;;;;;20.77;15.38;;;;;;;;;;5056561;28;20592;-82
2022/03/03 13:55:07;;;;;;;21.60;15.05;;;;;;;;;;5009572;28;20182;-84
2022/03/03 13:57:39;;;;;;;20.48;14.32;;;;;;;;;;5057516;28;20175;-83
2022/03/03 14:00:28;;;;;;;18.35;14.25;;;;;;;;;;5025900;28;20320;-84
2022/03/03 14:02:56;;;;;;;21.52;14.80;;;;;;;;;;5011026;28;20210;-86
2022/03/03 14:05:33;;;;;;;23.13;15.35;;;;;;;;;;5051607;28;20185;-83
2022/03/03 14:07:59;;;;;;;23.88;13.88;;;;;;;;;;5025110;28;20561;-85
2022/03/03 14:10:25;;;;;;;20.63;14.65;;;;;;;;;;5056135;28;20191;-86
2022/03/03 14:13:02;;;;;;;20.60;13.38;;;;;;;;;;5039644;28;20193;-86
2022/03/03 14:15:28;;;;;;;19.23;14.25;;;;;;;;;;5040960;28;20635;-84
2022/03/03 14:17:54;;;;;;;17.45;13.30;;;;;;;;;;5044960;28;20203;-85
2022/03/03 14:20:20;;;;;;;17.10;12.50;;;;;;;;;;5051571;28;20586;-85
2022/03/03 14:22:56;;;;;;;14.37;11.10;;;;;;;;;;5021451;28;20185;-85